Time;durP1;ratioP1;P1;durP2;ratioP2;P2;SDS_P1;SDS_P2;PMS_P1;PMS_P2;Temp;Humidity;BMP_temperature;BMP_pressure;BME280_temperature;BME280_humidity;BME280_pressure;Samples;Min_cycle;Max_cycle;Signal;HPM_P1;HPM_P2
2023/06/23 00:00:28;;;;;;;5.35;2.90;;;;;;;28.32;31.93;96652.63;5041520;28;20467;-26
2023/06/23 00:02:57;;;;;;;3.92;2.97;;;;;;;28.19;31.95;96653.41;5034267;28;20426;-26
2023/06/23 00:05:23;;;;;;;4.20;3.20;;;;;;;28.29;31.81;96650.19;5034185;28;20025;-26
2023/06/23 00:07:49;;;;;;;4.65;2.85;;;;;;;28.27;31.76;96639.56;5034091;28;20032;-27
2023/06/23 00:10:14;;;;;;;3.60;2.60;;;;;;;28.45;32.56;96632.31;5034097;28;20391;-26
2023/06/23 00:12:43;;;;;;;3.22;2.92;;;;;;;28.34;31.15;96636.09;5033786;28;20163;-26
2023/06/23 00:15:11;;;;;;;4.13;2.95;;;;;;;28.41;32.10;96629.13;5033493;28;20057;-27
2023/06/23 00:17:37;;;;;;;5.15;3.10;;;;;;;28.27;31.20;96633.25;5034225;28;20033;-26
2023/06/23 00:20:09;;;;;;;6.50;2.95;;;;;;;28.32;31.49;96651.88;5033867;28;20025;-27
2023/06/23 00:22:34;;;;;;;4.32;2.88;;;;;;;28.30;31.58;96663.59;5033938;28;20480;-26
2023/06/23 00:24:59;;;;;;;4.88;3.15;;;;;;;28.43;31.50;96651.66;5034020;28;20025;-26
2023/06/23 00:27:25;;;;;;;4.45;2.80;;;;;;;28.42;31.66;96647.38;5034228;28;20028;-26
2023/06/23 00:29:51;;;;;;;4.18;3.00;;;;;;;28.18;32.39;96635.19;5034167;28;20372;-26
2023/06/23 00:32:16;;;;;;;5.38;2.90;;;;;;;28.11;32.19;96629.50;5033765;28;20406;-26
2023/06/23 00:34:41;;;;;;;5.07;2.72;;;;;;;28.27;31.57;96602.56;5033486;28;20036;-26
2023/06/23 00:37:08;;;;;;;3.42;2.70;;;;;;;28.29;31.61;96588.84;5033693;28;20025;-27
2023/06/23 00:39:34;;;;;;;5.50;2.72;;;;;;;28.07;31.39;96590.78;5033587;28;20028;-26
2023/06/23 00:42:06;;;;;;;4.68;2.75;;;;;;;28.33;31.66;96561.34;5033462;28;20045;-26
2023/06/23 00:44:33;;;;;;;4.20;2.75;;;;;;;28.44;32.07;96531.13;5033698;28;20039;-26
2023/06/23 00:46:59;;;;;;;3.28;2.80;;;;;;;28.35;32.59;96520.47;5034007;28;20037;-26
2023/06/23 00:49:26;;;;;;;4.70;3.03;;;;;;;28.23;33.76;96533.91;5042124;28;20025;-26
2023/06/23 00:51:53;;;;;;;5.35;3.10;;;;;;;28.03;34.22;96540.19;5033447;28;20026;-26
2023/06/23 00:54:18;;;;;;;5.32;3.35;;;;;;;28.17;34.11;96546.47;5033260;28;20029;-27
2023/06/23 00:56:44;;;;;;;5.65;3.38;;;;;;;28.10;34.32;96541.56;5034026;28;20128;-26
2023/06/23 00:59:10;;;;;;;5.35;3.22;;;;;;;28.01;34.88;96536.44;5033701;28;20028;-26
2023/06/23 01:01:36;;;;;;;5.18;2.90;;;;;;;28.09;35.13;96538.00;5033240;28;20104;-27
2023/06/23 01:04:02;;;;;;;3.92;3.03;;;;;;;28.22;34.59;96551.19;5040381;28;20025;-26
2023/06/23 01:06:46;;;;;;;6.47;3.05;;;;;;;27.97;35.23;96563.88;5040488;28;20019;-26
2023/06/23 01:09:46;;;;;;;4.07;3.10;;;;;;;27.91;35.17;96572.38;5033602;28;20017;-26
2023/06/23 01:12:19;;;;;;;5.65;3.33;;;;;;;28.11;35.11;96574.47;5018198;28;20052;-26
2023/06/23 01:15:17;;;;;;;5.00;3.17;;;;;;;27.96;35.37;96584.69;5032941;28;20040;-26
2023/06/23 01:17:50;;;;;;;5.88;2.95;;;;;;;27.94;35.35;96587.28;5031580;28;20038;-26
2023/06/23 01:20:22;;;;;;;6.45;2.90;;;;;;;27.96;35.46;96579.88;5037189;28;20021;-26
2023/06/23 01:23:02;;;;;;;4.10;2.90;;;;;;;27.93;36.19;96574.63;5036704;28;20021;-26
2023/06/23 01:25:33;;;;;;;6.00;2.95;;;;;;;27.83;35.79;96549.97;5037183;28;20156;-26
2023/06/23 01:28:17;;;;;;;7.22;3.38;;;;;;;27.78;35.84;96541.75;5037433;28;20032;-26
2023/06/23 01:30:46;;;;;;;8.05;3.20;;;;;;;27.77;35.78;96560.50;5037080;28;20028;-26
2023/06/23 01:33:21;;;;;;;4.40;3.30;;;;;;;27.75;36.14;96559.56;5044499;28;20032;-26
2023/06/23 01:35:56;;;;;;;4.15;3.20;;;;;;;27.95;36.43;96550.50;5037174;28;20029;-26
2023/06/23 01:38:32;;;;;;;5.38;3.20;;;;;;;27.67;36.96;96550.34;5037472;28;20022;-27
2023/06/23 01:40:59;;;;;;;6.47;3.40;;;;;;;28.01;36.11;96542.78;5036893;28;20120;-26
2023/06/23 01:43:29;;;;;;;5.03;2.72;;;;;;;27.84;36.31;96531.22;5036732;28;20025;-26
2023/06/23 01:46:06;;;;;;;7.38;2.78;;;;;;;27.95;35.80;96505.91;5036836;28;20368;-26
2023/06/23 01:48:34;;;;;;;5.30;2.83;;;;;;;27.75;35.51;96489.88;5042736;28;20537;-26
2023/06/23 01:51:02;;;;;;;6.38;3.08;;;;;;;28.16;35.75;96470.44;5037264;28;20071;-26
2023/06/23 01:53:30;;;;;;;7.72;3.10;;;;;;;28.02;35.64;96476.63;5040940;28;20024;-26
2023/06/23 01:55:58;;;;;;;3.90;2.60;;;;;;;27.88;36.22;96473.13;5037406;28;20022;-26
2023/06/23 01:58:25;;;;;;;4.85;3.10;;;;;;;28.06;35.92;96465.88;5036457;28;20025;-26
2023/06/23 02:00:52;;;;;;;6.03;2.90;;;;;;;28.04;36.33;96463.63;5036889;28;20022;-26
2023/06/23 02:03:18;;;;;;;9.52;3.30;;;;;;;28.03;35.96;96467.72;5036701;28;20494;-26
2023/06/23 02:05:46;;;;;;;6.88;2.97;;;;;;;27.78;37.16;96475.63;5036611;28;20026;-26
2023/06/23 02:08:13;;;;;;;5.93;2.90;;;;;;;27.84;37.34;96473.44;5036836;28;20376;-27
2023/06/23 02:10:40;;;;;;;5.18;2.80;;;;;;;27.77;38.26;96527.06;5036272;28;20052;-26
2023/06/23 02:13:07;;;;;;;4.18;2.45;;;;;;;28.01;38.41;96550.38;5036043;28;20021;-26
2023/06/23 02:15:35;;;;;;;6.57;3.28;;;;;;;28.05;37.67;96557.13;5036468;28;20022;-26
2023/06/23 02:18:01;;;;;;;8.20;2.70;;;;;;;28.11;37.59;96563.31;5036183;28;20028;-26
2023/06/23 02:20:28;;;;;;;8.10;3.22;;;;;;;27.98;37.84;96568.94;5036519;28;20044;-26
2023/06/23 02:22:55;;;;;;;6.10;2.70;;;;;;;27.98;37.35;96537.50;5036222;28;20467;-26
2023/06/23 02:25:22;;;;;;;7.88;3.00;;;;;;;28.10;37.86;96545.09;5036155;28;20419;-26
2023/06/23 02:27:49;;;;;;;5.97;3.22;;;;;;;27.84;37.60;96578.59;5035950;28;20026;-26
2023/06/23 02:30:17;;;;;;;5.75;2.70;;;;;;;27.98;37.49;96576.53;5036024;28;20029;-27
2023/06/23 02:32:45;;;;;;;5.88;2.75;;;;;;;27.73;37.88;96584.41;5036103;28;20360;-26
2023/06/23 02:35:13;;;;;;;7.97;3.08;;;;;;;27.89;37.57;96580.53;5035936;28;20053;-26
2023/06/23 02:37:41;;;;;;;6.50;2.85;;;;;;;27.76;37.74;96566.63;5041588;28;20434;-26
2023/06/23 02:40:16;;;;;;;5.10;3.08;;;;;;;27.71;37.76;96561.91;5035698;28;20041;-26
2023/06/23 02:42:50;;;;;;;7.00;3.15;;;;;;;27.75;37.91;96590.94;5039787;28;20028;-26
2023/06/23 02:45:23;;;;;;;7.88;2.67;;;;;;;27.80;37.81;96620.00;5036114;28;20033;-26
2023/06/23 02:47:54;;;;;;;4.53;2.80;;;;;;;27.67;37.62;96608.88;5035289;28;20018;-26
2023/06/23 02:50:27;;;;;;;6.40;3.05;;;;;;;27.70;37.93;96610.56;5035763;28;20021;-26
2023/06/23 02:52:56;;;;;;;7.38;3.05;;;;;;;27.63;38.11;96614.75;5035895;28;20017;-26
2023/06/23 02:55:23;;;;;;;7.18;2.85;;;;;;;27.61;38.31;96611.00;5036139;28;20029;-26
2023/06/23 02:57:53;;;;;;;6.22;3.20;;;;;;;27.68;38.21;96604.78;5035776;28;20505;-27
2023/06/23 03:00:23;;;;;;;9.25;3.33;;;;;;;27.54;38.42;96601.97;5035630;28;20021;-26
2023/06/23 03:02:58;;;;;;;8.60;3.38;;;;;;;27.63;38.31;96625.91;5035445;28;20032;-26
2023/06/23 03:05:24;;;;;;;6.22;3.20;;;;;;;27.73;38.24;96618.59;5048885;28;20372;-27
2023/06/23 03:07:51;;;;;;;5.90;3.22;;;;;;;27.73;38.53;96617.84;5035366;28;20096;-28
2023/06/23 03:10:16;;;;;;;8.85;3.10;;;;;;;27.78;38.53;96603.81;5035342;28;20433;-26
2023/06/23 03:12:42;;;;;;;6.32;3.20;;;;;;;27.66;38.57;96602.53;5035796;28;20025;-26
2023/06/23 03:15:07;;;;;;;7.65;3.00;;;;;;;27.72;38.99;96605.19;5035331;28;20026;-26
2023/06/23 03:17:37;;;;;;;6.28;3.35;;;;;;;27.88;38.76;96607.66;5041595;28;20021;-26
2023/06/23 03:20:43;;;;;;;8.00;3.55;;;;;;;27.79;39.40;96627.63;5035953;28;20022;-26
2023/06/23 03:23:12;;;;;;;5.55;3.42;;;;;;;27.60;39.52;96640.16;5035031;28;20478;-26
2023/06/23 03:25:40;;;;;;;6.50;3.40;;;;;;;27.60;39.71;96615.06;5035227;28;20029;-26
2023/06/23 03:28:09;;;;;;;4.05;3.20;;;;;;;27.67;39.58;96609.63;5034843;28;20028;-26
2023/06/23 03:30:40;;;;;;;6.60;3.25;;;;;;;27.65;40.02;96617.75;5034712;28;20032;-26
2023/06/23 03:33:13;;;;;;;5.20;3.03;;;;;;;27.54;40.69;96610.34;5035011;28;20495;-26
2023/06/23 03:35:43;;;;;;;9.50;3.63;;;;;;;27.61;40.75;96597.06;5035017;28;20446;-26
2023/06/23 03:38:13;;;;;;;7.05;3.50;;;;;;;27.73;40.85;96609.50;5035585;28;20351;-26
2023/06/23 03:40:45;;;;;;;7.03;3.15;;;;;;;27.69;41.17;96614.66;5033321;28;20272;-26
2023/06/23 03:43:28;;;;;;;6.15;3.20;;;;;;;27.51;41.17;96603.06;5042114;28;20018;-26
2023/06/23 03:45:58;;;;;;;6.93;3.17;;;;;;;27.70;41.05;96597.38;5034324;28;20043;-26
2023/06/23 03:48:28;;;;;;;9.32;3.17;;;;;;;27.73;41.07;96589.97;5034458;28;20024;-26
2023/06/23 03:50:57;;;;;;;6.65;3.22;;;;;;;27.62;40.70;96590.22;5034616;28;20021;-26
2023/06/23 03:53:24;;;;;;;5.53;2.97;;;;;;;27.78;40.67;96587.09;5034262;28;20029;-26
2023/06/23 03:55:53;;;;;;;4.50;2.83;;;;;;;27.68;40.50;96588.06;5047680;28;20029;-28
2023/06/23 03:58:21;;;;;;;11.00;3.42;;;;;;;27.52;40.97;96576.69;5034599;28;20022;-26
2023/06/23 04:00:49;;;;;;;8.23;3.10;;;;;;;27.49;40.99;96582.59;5034647;28;20467;-26
2023/06/23 04:03:17;;;;;;;4.03;2.92;;;;;;;27.47;40.89;96585.91;5038788;28;20018;-26
2023/06/23 04:05:45;;;;;;;4.78;2.95;;;;;;;27.61;40.78;96602.63;5033847;28;20025;-26
2023/06/23 04:08:12;;;;;;;5.60;3.97;;;;;;;27.68;40.78;96607.59;5034121;28;20017;-27
2023/06/23 04:10:39;;;;;;;8.95;5.63;;;;;;;27.41;42.25;96593.63;5034420;28;20494;-26
2023/06/23 04:13:06;;;;;;;10.38;5.65;;;;;;;27.39;42.21;96585.06;5041426;28;20026;-27
2023/06/23 04:15:34;;;;;;;11.68;6.72;;;;;;;27.37;41.64;96570.91;5034504;28;20029;-27
2023/06/23 04:18:03;;;;;;;9.13;5.03;;;;;;;27.33;41.74;96555.78;5034116;28;20028;-27
2023/06/23 04:20:30;;;;;;;9.77;4.78;;;;;;;27.39;41.78;96565.56;5034015;28;20021;-26
2023/06/23 04:22:58;;;;;;;10.02;6.65;;;;;;;27.51;41.65;96574.44;5033948;28;20045;-26
2023/06/23 04:25:26;;;;;;;14.25;7.03;;;;;;;27.56;41.80;96575.66;5033752;28;20068;-26
2023/06/23 04:27:56;;;;;;;9.85;6.55;;;;;;;27.53;41.66;96561.47;5033981;28;20028;-27
2023/06/23 04:30:24;;;;;;;7.50;5.47;;;;;;;27.36;42.00;96558.28;5041414;28;20585;-26
2023/06/23 04:32:49;;;;;;;8.60;5.05;;;;;;;27.54;41.59;96559.44;5033684;28;20033;-26
2023/06/23 04:35:15;;;;;;;6.88;4.22;;;;;;;27.64;41.26;96554.22;5034239;28;20550;-27
2023/06/23 04:37:45;;;;;;;6.78;4.00;;;;;;;27.30;42.13;96537.41;5033805;28;20034;-28
2023/06/23 04:40:31;;;;;;;6.93;3.55;;;;;;;27.58;42.17;96523.66;5033570;28;20048;-26
2023/06/23 04:43:09;;;;;;;5.30;3.78;;;;;;;27.37;42.30;96512.44;5039719;28;20029;-26
2023/06/23 04:45:40;;;;;;;6.68;3.67;;;;;;;27.55;41.87;96505.22;5033858;28;20546;-26
2023/06/23 04:48:11;;;;;;;7.95;3.65;;;;;;;27.40;42.03;96519.72;5041046;28;20049;-27
2023/06/23 04:50:40;;;;;;;5.05;3.10;;;;;;;27.67;40.65;96519.72;5034158;28;20078;-26
2023/06/23 04:53:13;;;;;;;5.53;3.58;;;;;;;27.64;40.71;96520.78;5033605;28;20108;-26
2023/06/23 04:55:40;;;;;;;7.97;3.22;;;;;;;27.78;40.45;96511.09;5033450;28;20053;-26
2023/06/23 04:58:08;;;;;;;5.97;3.25;;;;;;;27.73;40.21;96528.69;5032551;28;20026;-26
2023/06/23 05:00:39;;;;;;;6.47;3.67;;;;;;;27.78;39.65;96538.97;5040781;28;20482;-26
2023/06/23 05:03:05;;;;;;;6.53;3.47;;;;;;;27.52;39.77;96534.16;5033739;28;20025;-26
2023/06/23 05:05:33;;;;;;;7.90;3.55;;;;;;;27.53;40.11;96536.41;5033060;28;20032;-26
2023/06/23 05:08:01;;;;;;;6.85;3.05;;;;;;;27.59;39.97;96552.28;5033597;28;20020;-26
2023/06/23 05:10:28;;;;;;;5.28;3.50;;;;;;;27.48;40.34;96551.19;5033265;28;20079;-26
2023/06/23 05:12:56;;;;;;;4.53;3.50;;;;;;;27.45;41.14;96545.94;5034549;28;20105;-26
2023/06/23 05:15:23;;;;;;;7.50;3.83;;;;;;;27.72;41.06;96533.50;5038898;28;20033;-26
2023/06/23 05:17:51;;;;;;;10.63;3.70;;;;;;;27.46;41.46;96516.78;5033563;28;20030;-26
2023/06/23 05:20:20;;;;;;;7.53;3.17;;;;;;;27.38;41.17;96533.41;5033540;28;20411;-26
2023/06/23 05:22:48;;;;;;;7.95;3.20;;;;;;;27.52;40.83;96528.59;5032830;28;20578;-26
2023/06/23 05:25:15;;;;;;;7.32;3.55;;;;;;;27.51;41.05;96538.97;5033250;28;20048;-26
2023/06/23 05:27:45;;;;;;;8.60;3.28;;;;;;;27.51;40.86;96536.19;5033608;28;20085;-26
2023/06/23 05:30:15;;;;;;;5.25;3.35;;;;;;;27.34;41.38;96530.19;5033346;28;20479;-26
2023/06/23 05:32:42;;;;;;;3.97;3.17;;;;;;;27.36;41.10;96536.00;5033389;28;20371;-26
2023/06/23 05:35:10;;;;;;;8.00;3.80;;;;;;;27.49;41.16;96544.34;5033398;28;20021;-26
2023/06/23 05:37:38;;;;;;;10.88;3.67;;;;;;;27.42;41.21;96558.91;5033512;28;20025;-26
2023/06/23 05:40:06;;;;;;;5.97;3.47;;;;;;;27.56;41.36;96570.09;5032749;28;20115;-26
2023/06/23 05:42:35;;;;;;;5.30;3.55;;;;;;;27.39;41.56;96550.88;5033729;28;20026;-26
2023/06/23 05:45:01;;;;;;;7.38;3.60;;;;;;;27.41;41.77;96549.06;5032592;28;20067;-26
2023/06/23 05:47:34;;;;;;;5.85;3.35;;;;;;;27.56;41.91;96562.47;5033454;28;20022;-26
2023/06/23 05:50:01;;;;;;;9.60;3.67;;;;;;;27.47;42.10;96549.69;5040166;28;20056;-26
2023/06/23 05:52:29;;;;;;;5.25;2.95;;;;;;;27.72;42.07;96543.91;5033597;28;20112;-26
2023/06/23 05:54:58;;;;;;;5.32;3.35;;;;;;;27.43;42.73;96545.75;5033003;28;20056;-26
2023/06/23 05:57:32;;;;;;;7.57;3.70;;;;;;;27.58;42.22;96553.56;5036382;28;20421;-26
2023/06/23 06:00:13;;;;;;;6.15;3.65;;;;;;;27.57;42.32;96555.59;5033034;28;20053;-26
2023/06/23 06:02:43;;;;;;;7.22;3.55;;;;;;;27.64;41.42;96557.00;5032848;28;20025;-26
2023/06/23 06:05:12;;;;;;;10.07;4.25;;;;;;;27.54;41.81;96562.97;5036996;28;20032;-26
2023/06/23 06:07:39;;;;;;;11.75;4.93;;;;;;;27.53;42.22;96569.09;5035617;28;20022;-26
2023/06/23 06:10:08;;;;;;;8.38;4.00;;;;;;;27.59;42.47;96569.00;5034159;28;20025;-26
2023/06/23 06:12:35;;;;;;;9.50;3.45;;;;;;;27.49;43.09;96565.88;5035218;28;20375;-26
2023/06/23 06:15:04;;;;;;;9.00;3.38;;;;;;;27.64;42.99;96582.06;5036363;28;20025;-26
2023/06/23 06:17:33;;;;;;;7.65;3.80;;;;;;;27.39;44.76;96567.59;5036265;28;20061;-26
2023/06/23 06:20:02;;;;;;;6.40;3.95;;;;;;;27.47;45.61;96558.03;5036711;28;20028;-26
2023/06/23 06:22:32;;;;;;;10.05;3.58;;;;;;;27.52;46.58;96573.91;5042312;28;20040;-26
2023/06/23 06:24:59;;;;;;;10.18;4.30;;;;;;;27.40;47.69;96569.09;5036629;28;20386;-27
2023/06/23 06:27:28;;;;;;;11.20;4.68;;;;;;;27.43;47.99;96565.25;5036030;28;20072;-26
2023/06/23 06:29:56;;;;;;;8.70;4.15;;;;;;;27.56;47.55;96564.50;5036070;28;20021;-26
2023/06/23 06:32:23;;;;;;;9.07;4.35;;;;;;;27.61;48.11;96572.00;5036514;28;20021;-26
2023/06/23 06:34:50;;;;;;;9.00;4.18;;;;;;;27.48;48.80;96569.94;5036023;28;20107;-26
2023/06/23 06:37:18;;;;;;;11.38;4.55;;;;;;;27.57;49.73;96566.00;5036656;28;20021;-26
2023/06/23 06:39:44;;;;;;;8.70;4.05;;;;;;;27.59;48.84;96569.00;5035411;28;20025;-26
2023/06/23 06:42:11;;;;;;;11.02;4.15;;;;;;;27.64;49.98;96565.34;5036227;28;20026;-26
2023/06/23 06:44:36;;;;;;;7.78;3.83;;;;;;;27.59;49.84;96580.88;5035914;28;20360;-26
2023/06/23 06:47:04;;;;;;;9.32;4.57;;;;;;;27.48;50.73;96569.94;5035972;28;20018;-26
2023/06/23 06:49:30;;;;;;;10.90;4.82;;;;;;;27.58;50.63;96573.81;5035829;28;20104;-26
2023/06/23 06:51:59;;;;;;;9.73;4.60;;;;;;;27.60;50.23;96579.59;5039352;28;20378;-26
2023/06/23 06:54:25;;;;;;;10.18;4.28;;;;;;;27.63;50.26;96566.63;5038309;28;20024;-26
2023/06/23 06:56:51;;;;;;;9.75;4.63;;;;;;;27.61;51.18;96577.56;5035578;28;20059;-26
2023/06/23 06:59:17;;;;;;;11.18;4.60;;;;;;;27.66;50.38;96580.25;5035809;28;20025;-26
2023/06/23 07:01:42;;;;;;;10.15;4.88;;;;;;;27.72;50.80;96577.34;5035373;28;20038;-27
2023/06/23 07:04:09;;;;;;;12.50;4.90;;;;;;;27.54;51.90;96574.13;5035458;28;20025;-26
2023/06/23 07:06:36;;;;;;;9.20;4.80;;;;;;;27.68;51.56;96580.47;5035496;28;20071;-26
2023/06/23 07:09:03;;;;;;;6.80;4.03;;;;;;;27.77;51.31;96577.25;5035334;28;20561;-25
2023/06/23 07:11:30;;;;;;;7.88;5.07;;;;;;;27.66;52.46;96582.28;5042534;28;20064;-26
2023/06/23 07:13:56;;;;;;;7.60;4.47;;;;;;;27.56;52.97;96581.22;5038326;28;20058;-26
2023/06/23 07:16:21;;;;;;;11.40;4.72;;;;;;;27.54;53.44;96578.94;5040929;28;20057;-26
2023/06/23 07:18:47;;;;;;;9.13;4.78;;;;;;;27.79;52.94;96580.25;5035491;28;20537;-26
2023/06/23 07:21:12;;;;;;;8.35;4.97;;;;;;;27.62;53.74;96585.38;5034052;28;20029;-26
2023/06/23 07:23:38;;;;;;;12.85;5.10;;;;;;;27.67;52.65;96584.53;5035222;28;20025;-26
2023/06/23 07:26:03;;;;;;;9.77;4.93;;;;;;;27.77;52.73;96588.38;5035276;28;20022;-26
2023/06/23 07:28:28;;;;;;;9.30;4.45;;;;;;;27.74;53.08;96583.88;5035434;28;20021;-26
2023/06/23 07:30:54;;;;;;;9.93;4.88;;;;;;;27.70;52.20;96585.47;5035222;28;20048;-26
2023/06/23 07:33:20;;;;;;;9.75;4.50;;;;;;;27.59;53.43;96586.47;5034870;28;20081;-26
2023/06/23 07:35:45;;;;;;;13.18;5.03;;;;;;;27.70;52.74;96591.06;5034756;28;20099;-26
2023/06/23 07:38:11;;;;;;;10.88;5.45;;;;;;;27.57;53.16;96591.81;5035039;28;20036;-26
2023/06/23 07:40:36;;;;;;;10.50;4.82;;;;;;;27.63;53.25;96586.91;5034849;28;20041;-26
2023/06/23 07:43:02;;;;;;;12.30;5.20;;;;;;;27.69;52.90;96589.59;5034708;28;20148;-26
2023/06/23 07:45:28;;;;;;;11.90;5.25;;;;;;;27.81;52.45;96588.06;5034897;28;20032;-26
2023/06/23 07:47:54;;;;;;;11.77;6.00;;;;;;;27.73;51.82;96578.84;5034605;28;20096;-26
2023/06/23 07:50:19;;;;;;;13.00;5.07;;;;;;;27.93;51.78;96580.97;5034491;28;20056;-26
2023/06/23 07:52:52;;;;;;;10.40;5.45;;;;;;;27.65;52.79;96575.97;5034110;28;20029;-26
2023/06/23 07:55:19;;;;;;;10.68;4.80;;;;;;;27.82;51.47;96581.94;5034564;28;20021;-26
2023/06/23 07:57:44;;;;;;;8.55;5.25;;;;;;;27.72;52.89;96580.13;5034788;28;20457;-26
2023/06/23 08:00:11;;;;;;;13.02;5.18;;;;;;;27.79;52.71;96577.44;5034865;28;20044;-26
2023/06/23 08:02:36;;;;;;;7.55;5.13;;;;;;;27.77;53.31;96573.69;5034398;28;20029;-27
2023/06/23 08:05:02;;;;;;;14.25;6.03;;;;;;;27.86;52.79;96578.81;5039576;28;20025;-26
2023/06/23 08:07:27;;;;;;;13.77;5.45;;;;;;;27.91;52.28;96580.75;5034177;28;20033;-26
2023/06/23 08:09:52;;;;;;;11.65;5.93;;;;;;;27.99;53.22;96576.00;5033903;28;20025;-26
2023/06/23 08:12:18;;;;;;;12.10;5.60;;;;;;;27.91;53.05;96582.78;5034596;28;20021;-26
2023/06/23 08:14:43;;;;;;;14.15;5.93;;;;;;;27.90;52.95;96576.47;5033853;28;20029;-26
2023/06/23 08:17:09;;;;;;;12.63;5.93;;;;;;;27.93;52.86;96580.97;5034651;28;20061;-26
2023/06/23 08:19:35;;;;;;;16.13;6.22;;;;;;;28.13;51.58;96587.88;5034473;28;20025;-26
2023/06/23 08:22:00;;;;;;;17.13;6.28;;;;;;;27.98;52.62;96591.22;5034096;28;20073;-26
2023/06/23 08:24:26;;;;;;;15.68;6.53;;;;;;;28.28;51.80;96588.09;5033802;28;20506;-27
2023/06/23 08:26:51;;;;;;;15.30;6.45;;;;;;;28.06;51.79;96596.91;5033969;28;20031;-26
2023/06/23 08:29:17;;;;;;;12.38;5.40;;;;;;;28.09;51.23;96596.56;5034025;28;20057;-26
2023/06/23 08:31:42;;;;;;;14.52;5.97;;;;;;;28.17;51.67;96589.06;5033979;28;20029;-26
2023/06/23 08:34:08;;;;;;;19.10;6.07;;;;;;;28.19;51.48;96594.84;5034119;28;20093;-26
2023/06/23 08:36:33;;;;;;;15.07;6.10;;;;;;;28.28;51.60;96585.28;5033830;28;20051;-26
2023/06/23 08:38:59;;;;;;;12.95;5.65;;;;;;;28.20;50.99;96590.00;5033617;28;20021;-26
2023/06/23 08:41:25;;;;;;;14.50;6.18;;;;;;;28.38;50.56;96589.13;5034392;28;20053;-26
2023/06/23 08:43:53;;;;;;;23.27;10.77;;;;;;;28.19;51.29;96592.06;5039346;28;20029;-26
2023/06/23 08:46:21;;;;;;;21.63;9.75;;;;;;;28.43;50.53;96576.34;5033881;28;20021;-27
2023/06/23 08:48:51;;;;;;;15.38;7.15;;;;;;;28.26;51.23;96578.75;5033450;28;20100;-28
2023/06/23 08:51:16;;;;;;;19.30;8.43;;;;;;;28.36;50.18;96574.97;5033407;28;20053;-26
2023/06/23 08:53:42;;;;;;;16.30;6.68;;;;;;;28.24;51.00;96587.66;5033658;28;20442;-26
2023/06/23 08:56:09;;;;;;;15.88;7.88;;;;;;;28.29;50.86;96586.03;5033297;28;20025;-27
2023/06/23 08:58:35;;;;;;;14.55;7.05;;;;;;;28.30;50.43;96588.28;5041414;28;20029;-26
2023/06/23 09:01:00;;;;;;;16.58;6.45;;;;;;;28.37;50.54;96589.66;5033853;28;20021;-26
2023/06/23 09:03:25;;;;;;;17.88;6.25;;;;;;;28.42;50.69;96588.78;5033585;28;20028;-26
2023/06/23 09:05:51;;;;;;;10.77;6.57;;;;;;;28.38;50.50;96577.94;5033603;28;20032;-26
2023/06/23 09:08:17;;;;;;;17.55;6.63;;;;;;;28.41;50.22;96585.25;5033107;28;20096;-27
2023/06/23 09:10:43;;;;;;;14.60;6.40;;;;;;;28.35;51.21;96584.59;5037999;28;20048;-28
2023/06/23 09:13:26;;;;;;;18.27;7.18;;;;;;;28.45;50.32;96588.44;5033144;28;20403;-26
2023/06/23 09:15:52;;;;;;;16.48;6.82;;;;;;;28.36;51.59;96588.16;5033506;28;20021;-26
2023/06/23 09:18:18;;;;;;;12.65;5.75;;;;;;;28.23;51.88;96581.31;5034005;28;20024;-26
2023/06/23 09:20:46;;;;;;;11.70;6.00;;;;;;;28.35;50.75;96581.06;5033525;28;20032;-26
2023/06/23 09:23:14;;;;;;;15.77;6.57;;;;;;;28.43;50.49;96576.34;5033525;28;20022;-26
2023/06/23 09:25:42;;;;;;;15.07;5.93;;;;;;;28.30;50.62;96581.97;5033027;28;20057;-26
2023/06/23 09:28:23;;;;;;;18.90;7.43;;;;;;;28.54;50.14;96584.44;5032951;28;20018;-26
2023/06/23 09:30:49;;;;;;;16.40;6.50;;;;;;;28.37;50.92;96578.50;5033640;28;20025;-26
2023/06/23 09:33:17;;;;;;;15.73;6.43;;;;;;;28.33;50.72;96576.03;5034411;28;20017;-27
2023/06/23 09:35:54;;;;;;;13.45;6.05;;;;;;;28.38;50.57;96563.25;5038569;28;20029;-26
2023/06/23 09:38:24;;;;;;;12.10;5.55;;;;;;;28.44;50.10;96566.66;5033487;28;20038;-27
2023/06/23 09:41:13;;;;;;;16.02;6.25;;;;;;;28.48;50.16;96562.25;5032929;28;20046;-26
2023/06/23 09:43:45;;;;;;;19.08;5.35;;;;;;;28.40;50.63;96561.44;5026952;28;20442;-28
2023/06/23 09:46:12;;;;;;;10.85;5.72;;;;;;;28.40;51.09;96555.84;5036357;28;20025;-26
2023/06/23 09:48:38;;;;;;;15.98;6.22;;;;;;;28.39;51.10;96559.19;5037123;28;20017;-27
2023/06/23 09:51:05;;;;;;;13.38;5.40;;;;;;;28.42;50.86;96542.13;5037071;28;20341;-26
2023/06/23 09:53:40;;;;;;;18.52;6.07;;;;;;;28.37;50.68;96553.38;5037115;28;20025;-27
2023/06/23 09:56:07;;;;;;;15.43;5.68;;;;;;;28.41;50.74;96557.34;5036745;28;20023;-26
2023/06/23 09:58:37;;;;;;;14.15;5.47;;;;;;;28.28;51.23;96554.63;5036905;28;20410;-26
2023/06/23 10:01:06;;;;;;;11.75;5.50;;;;;;;28.38;51.08;96555.63;5036952;28;20033;-27
2023/06/23 10:03:40;;;;;;;16.83;5.85;;;;;;;28.47;50.61;96557.94;5041208;28;20017;-27
2023/06/23 10:06:06;;;;;;;11.20;5.38;;;;;;;28.40;51.05;96555.09;5036642;28;20021;-26
2023/06/23 10:08:38;;;;;;;21.52;6.97;;;;;;;28.46;51.04;96552.91;5036824;28;20021;-26
2023/06/23 10:11:03;;;;;;;21.65;6.15;;;;;;;28.45;51.35;96554.19;5052709;28;20025;-26
2023/06/23 10:13:29;;;;;;;16.52;5.60;;;;;;;28.46;51.66;96553.66;5036055;28;20037;-28
2023/06/23 10:15:55;;;;;;;18.13;6.18;;;;;;;28.37;51.54;96542.22;5036589;28;20425;-26
2023/06/23 10:18:21;;;;;;;11.65;5.57;;;;;;;28.57;51.27;96547.81;5036800;28;20018;-26
2023/06/23 10:20:47;;;;;;;12.00;5.65;;;;;;;28.50;51.53;96542.16;5036139;28;20032;-28
2023/06/23 10:23:13;;;;;;;13.18;5.78;;;;;;;28.54;51.51;96534.22;5036790;28;20041;-27
2023/06/23 10:25:40;;;;;;;10.10;5.25;;;;;;;28.47;51.38;96543.25;5036152;28;20025;-27
2023/06/23 10:28:11;;;;;;;15.32;5.75;;;;;;;28.49;51.30;96540.69;5034909;28;20049;-26
2023/06/23 10:30:39;;;;;;;12.60;5.32;;;;;;;28.59;50.97;96527.75;5036139;28;20355;-26
2023/06/23 10:33:07;;;;;;;16.98;5.80;;;;;;;28.62;50.56;96525.91;5035993;28;20029;-26
2023/06/23 10:35:33;;;;;;;18.67;6.45;;;;;;;28.61;50.82;96530.72;5036262;28;20053;-26
2023/06/23 10:38:03;;;;;;;17.10;6.18;;;;;;;28.68;50.38;96518.91;5035959;28;20032;-26
2023/06/23 10:40:36;;;;;;;14.02;5.75;;;;;;;28.58;51.12;96517.88;5036227;28;20309;-27
2023/06/23 10:43:03;;;;;;;15.82;6.32;;;;;;;28.66;50.36;96518.69;5036052;28;20017;-28
2023/06/23 10:45:29;;;;;;;18.42;5.90;;;;;;;28.73;50.35;96518.00;5035760;28;20029;-27
2023/06/23 10:47:54;;;;;;;13.90;5.55;;;;;;;28.70;50.76;96523.91;5035697;28;20018;-26
2023/06/23 10:50:22;;;;;;;19.35;6.47;;;;;;;28.69;50.30;96520.38;5035900;28;20033;-26
2023/06/23 10:52:47;;;;;;;17.23;5.90;;;;;;;28.64;51.22;96521.28;5035840;28;20112;-26
2023/06/23 10:55:34;;;;;;;11.88;5.40;;;;;;;28.68;51.02;96513.31;5042267;28;20064;-26
2023/06/23 10:58:09;;;;;;;12.02;5.65;;;;;;;28.69;51.03;96511.25;5041407;28;20026;-26
2023/06/23 11:00:35;;;;;;;17.30;5.85;;;;;;;28.70;50.94;96509.97;5037579;28;20024;-26
2023/06/23 11:03:01;;;;;;;13.85;5.93;;;;;;;28.66;50.88;96510.31;5035578;28;20017;-26
2023/06/23 11:05:26;;;;;;;15.32;6.03;;;;;;;28.75;50.45;96498.66;5035496;28;20075;-26
2023/06/23 11:08:09;;;;;;;15.48;6.15;;;;;;;28.75;50.50;96506.28;5035907;28;20025;-26
2023/06/23 11:11:00;;;;;;;15.20;5.43;;;;;;;28.74;50.43;96497.16;5035526;28;20032;-27
2023/06/23 11:13:37;;;;;;;12.88;5.95;;;;;;;28.80;49.81;96499.84;5030450;28;20375;-26
2023/06/23 11:16:04;;;;;;;21.20;6.32;;;;;;;28.77;50.12;96504.47;5043257;28;20016;-27
2023/06/23 11:18:29;;;;;;;14.85;6.03;;;;;;;28.81;50.12;96513.25;5035989;28;20621;-27
2023/06/23 11:21:02;;;;;;;15.73;6.43;;;;;;;28.87;49.87;96508.28;5034963;28;20116;-28
2023/06/23 11:23:29;;;;;;;13.75;6.20;;;;;;;28.75;50.32;96501.47;5035243;28;20021;-27
2023/06/23 11:25:54;;;;;;;15.32;5.93;;;;;;;28.79;50.22;96506.72;5035533;28;20029;-26
2023/06/23 11:28:23;;;;;;;12.68;5.47;;;;;;;28.87;49.51;96504.72;5035258;28;20391;-26
2023/06/23 11:31:07;;;;;;;14.90;5.97;;;;;;;28.66;49.72;96499.16;5034907;28;20025;-26
2023/06/23 11:33:34;;;;;;;17.88;6.05;;;;;;;28.76;49.72;96496.63;5034548;28;20029;-26
2023/06/23 11:36:08;;;;;;;15.95;6.18;;;;;;;28.87;49.41;96494.31;5033451;28;20037;-26